createdAt,value
2018-06-22T00:00:13.988Z,23.64
2018-06-22T00:02:43.796Z,23.49
2018-06-22T00:05:13.703Z,23.52
2018-06-22T00:07:43.540Z,23.53
2018-06-22T00:10:13.344Z,23.53
2018-06-22T00:12:43.211Z,23.54
2018-06-22T00:15:13.076Z,23.48
2018-06-22T00:17:42.965Z,23.40
2018-06-22T00:20:12.866Z,23.39
2018-06-22T00:22:42.720Z,23.39
2018-06-22T00:25:12.562Z,23.39
2018-06-22T00:27:42.420Z,23.30
2018-06-22T00:30:12.244Z,23.29
2018-06-22T00:32:42.220Z,23.30
2018-06-22T00:35:12.066Z,23.29
2018-06-22T00:37:41.920Z,23.30
2018-06-22T00:40:11.708Z,23.29
2018-06-22T00:42:41.552Z,23.20
2018-06-22T00:45:11.363Z,23.18
2018-06-22T00:47:41.278Z,23.27
2018-06-22T00:50:11.093Z,23.29
2018-06-22T00:52:40.905Z,23.23
2018-06-22T00:55:10.867Z,23.24
2018-06-22T00:57:40.676Z,23.29
2018-06-22T01:00:10.515Z,23.18
2018-06-22T01:02:40.387Z,23.21
2018-06-22T01:05:10.229Z,23.21
2018-06-22T01:07:40.043Z,23.20
2018-06-22T01:10:09.958Z,23.18
2018-06-22T01:12:39.796Z,23.20
2018-06-22T01:15:09.632Z,23.08
2018-06-22T01:17:39.512Z,22.97
2018-06-22T01:20:09.365Z,22.93
2018-06-22T01:22:39.252Z,22.81
2018-06-22T01:25:09.064Z,22.79
2018-06-22T01:27:38.888Z,22.78
2018-06-22T01:30:08.792Z,22.68
2018-06-22T01:32:38.677Z,22.69
2018-06-22T01:35:08.531Z,22.62
2018-06-22T01:37:38.388Z,22.61
2018-06-22T01:40:08.232Z,22.59
2018-06-22T01:42:38.123Z,22.55
2018-06-22T01:45:07.980Z,21.23
2018-06-22T01:47:37.856Z,22.52
2018-06-22T01:50:07.821Z,22.48
2018-06-22T01:52:37.660Z,22.43
2018-06-22T01:55:07.536Z,22.41
2018-06-22T01:57:37.321Z,22.40
2018-06-22T02:00:07.176Z,22.37
2018-06-22T02:02:37.028Z,22.35
2018-06-22T02:05:07.022Z,22.37
2018-06-22T02:07:36.833Z,22.33
2018-06-22T02:10:06.868Z,22.32
2018-06-22T02:12:36.723Z,22.24
2018-06-22T02:15:06.591Z,22.26
2018-06-22T02:17:36.390Z,22.23
2018-06-22T02:20:06.324Z,22.19
2018-06-22T02:22:36.117Z,22.18
2018-06-22T02:25:05.996Z,22.14
2018-06-22T02:27:35.808Z,22.16
2018-06-22T02:30:05.759Z,22.16
2018-06-22T02:32:35.613Z,22.16
2018-06-22T02:35:05.561Z,22.14
2018-06-22T02:37:35.409Z,22.14
2018-06-22T02:40:05.640Z,22.16
2018-06-22T02:42:35.449Z,22.15
2018-06-22T02:45:05.352Z,22.10
2018-06-22T02:47:35.161Z,22.05
2018-06-22T02:50:05.117Z,22.00
2018-06-22T02:52:34.945Z,21.97
2018-06-22T02:55:05.141Z,22.00
2018-06-22T02:57:34.992Z,22.00
2018-06-22T03:00:04.922Z,22.00
2018-06-22T03:02:34.761Z,22.03
2018-06-22T03:05:04.669Z,22.04
2018-06-22T03:07:34.496Z,21.96
2018-06-22T03:10:04.949Z,21.98
2018-06-22T03:12:34.929Z,21.97
2018-06-22T03:15:05.063Z,22.00
2018-06-22T03:17:34.920Z,21.91
2018-06-22T03:20:04.815Z,21.92
2018-06-22T03:22:34.685Z,21.88
2018-06-22T03:25:04.535Z,21.95
2018-06-22T03:27:34.371Z,22.04
2018-06-22T03:30:04.311Z,21.99
2018-06-22T03:32:34.153Z,22.06
2018-06-22T03:35:04.037Z,22.21
2018-06-22T03:37:33.824Z,22.33
2018-06-22T03:40:03.673Z,22.42
2018-06-22T03:42:33.526Z,22.53
2018-06-22T03:45:03.371Z,22.59
2018-06-22T03:47:33.201Z,22.67
2018-06-22T03:50:03.052Z,22.78
2018-06-22T03:52:32.873Z,22.90
2018-06-22T03:55:02.693Z,23.10
2018-06-22T03:57:32.484Z,23.25
2018-06-22T04:00:02.318Z,23.25
2018-06-22T04:02:32.128Z,23.33
2018-06-22T04:05:02.008Z,23.40
2018-06-22T04:07:31.840Z,23.47
2018-06-22T04:10:01.758Z,23.37
2018-06-22T04:12:31.565Z,23.52
2018-06-22T04:15:01.416Z,23.55
2018-06-22T04:17:31.204Z,23.66
2018-06-22T04:20:01.134Z,23.86
2018-06-22T04:22:30.987Z,24.00
2018-06-22T04:25:00.868Z,24.12
2018-06-22T04:27:30.704Z,24.22
2018-06-22T04:30:00.608Z,24.35
2018-06-22T04:32:30.413Z,24.78
2018-06-22T04:35:00.299Z,24.97
2018-06-22T04:37:30.141Z,25.15
2018-06-22T04:40:00.028Z,25.58
2018-06-22T04:42:29.824Z,25.85
2018-06-22T04:44:59.665Z,25.90
2018-06-22T04:47:29.523Z,26.08
2018-06-22T04:49:59.383Z,25.77
2018-06-22T04:52:29.215Z,26.14
2018-06-22T04:54:59.015Z,25.96
2018-06-22T04:57:28.915Z,25.86
2018-06-22T04:59:58.750Z,26.30
2018-06-22T05:02:28.689Z,26.35
2018-06-22T05:04:58.528Z,26.51
2018-06-22T05:07:28.378Z,26.54
2018-06-22T05:09:58.180Z,26.68
2018-06-22T05:12:28.031Z,27.07
2018-06-22T05:14:58.527Z,27.06
2018-06-22T05:17:28.374Z,26.95
2018-06-22T05:19:58.199Z,26.92
2018-06-22T05:22:28.031Z,27.09
2018-06-22T05:24:57.886Z,27.13
2018-06-22T05:27:27.693Z,27.33
2018-06-22T05:29:58.167Z,27.40
2018-06-22T05:32:28.260Z,27.63
2018-06-22T05:34:58.332Z,27.49
2018-06-22T05:37:28.335Z,27.79
2018-06-22T05:39:58.200Z,27.73
2018-06-22T05:42:28.065Z,27.81
2018-06-22T05:44:57.929Z,27.94
2018-06-22T05:47:27.860Z,28.12
2018-06-22T05:49:57.744Z,28.13
2018-06-22T05:52:27.716Z,28.16
2018-06-22T05:54:57.712Z,28.36
2018-06-22T05:57:27.785Z,28.47
2018-06-22T05:59:57.768Z,28.58
2018-06-22T06:02:30.849Z,28.77
2018-06-22T06:05:00.972Z,28.84
2018-06-22T06:07:30.928Z,28.88
2018-06-22T06:10:00.885Z,28.91
2018-06-22T06:12:30.948Z,28.93
2018-06-22T06:15:00.936Z,28.87
2018-06-22T06:17:30.850Z,28.99
2018-06-22T06:20:00.814Z,29.09
2018-06-22T06:22:30.725Z,29.43
2018-06-22T06:25:00.652Z,29.64
2018-06-22T06:27:30.685Z,29.73
2018-06-22T06:30:00.767Z,29.55
2018-06-22T06:32:30.788Z,29.51
2018-06-22T06:35:00.857Z,29.82
2018-06-22T06:37:30.997Z,30.03
2018-06-22T06:40:00.984Z,30.22
2018-06-22T06:42:30.888Z,30.22
2018-06-22T06:45:01.251Z,30.23
2018-06-22T06:47:31.220Z,30.49
2018-06-22T06:50:01.212Z,30.57
2018-06-22T06:52:31.133Z,30.87
2018-06-22T06:55:01.117Z,30.99
2018-06-22T06:57:30.940Z,30.91
2018-06-22T07:00:01.000Z,30.54
2018-06-22T07:02:30.943Z,31.03
2018-06-22T07:05:00.816Z,31.13
2018-06-22T07:07:30.748Z,31.20
2018-06-22T07:10:00.703Z,31.15
2018-06-22T07:12:30.671Z,31.18
2018-06-22T07:15:00.624Z,31.62
2018-06-22T07:17:30.609Z,31.23
2018-06-22T07:20:00.553Z,31.65
2018-06-22T07:22:30.846Z,31.81
2018-06-22T07:25:00.928Z,31.81
2018-06-22T07:27:31.141Z,32.01
2018-06-22T07:30:01.504Z,32.15
2018-06-22T07:32:31.469Z,32.29
2018-06-22T07:35:01.333Z,32.32
2018-06-22T07:37:31.232Z,32.01
2018-06-22T07:40:01.142Z,32.19
2018-06-22T07:42:31.040Z,32.20
2018-06-22T07:45:00.999Z,32.16
2018-06-22T07:47:30.865Z,32.00
2018-06-22T07:50:00.758Z,32.00
2018-06-22T07:52:30.610Z,32.01
2018-06-22T07:55:00.510Z,32.17
2018-06-22T07:57:30.684Z,32.25
2018-06-22T08:00:00.620Z,32.18
2018-06-22T08:02:30.524Z,32.20
2018-06-22T08:05:00.433Z,32.41
2018-06-22T08:07:30.381Z,32.30
2018-06-22T08:10:00.335Z,32.34
2018-06-22T08:12:30.353Z,32.43
2018-06-22T08:15:00.196Z,32.61
2018-06-22T08:17:30.268Z,32.70
2018-06-22T08:20:00.188Z,32.47
2018-06-22T08:22:30.187Z,32.45
2018-06-22T08:25:00.943Z,32.28
2018-06-22T08:27:30.825Z,32.37
2018-06-22T08:30:00.779Z,32.41
2018-06-22T08:32:30.784Z,32.20
2018-06-22T08:35:00.821Z,32.32
2018-06-22T08:37:30.798Z,32.50
2018-06-22T08:40:01.396Z,32.58
2018-06-22T08:42:31.360Z,32.62
2018-06-22T08:45:01.277Z,32.63
2018-06-22T08:47:31.240Z,32.63
2018-06-22T08:50:01.406Z,32.86
2018-06-22T08:52:31.309Z,32.97
2018-06-22T08:55:01.180Z,32.99
2018-06-22T08:57:31.124Z,33.09
2018-06-22T09:00:01.040Z,33.10
2018-06-22T09:02:30.917Z,33.23
2018-06-22T09:05:00.810Z,33.23
2018-06-22T09:07:30.628Z,33.08
2018-06-22T09:10:00.480Z,33.08
2018-06-22T09:12:30.400Z,33.32
2018-06-22T09:15:00.263Z,33.38
2018-06-22T09:17:30.592Z,33.27
2018-06-22T09:20:00.781Z,33.25
2018-06-22T09:22:30.640Z,33.34
2018-06-22T09:25:00.590Z,33.11
2018-06-22T09:27:30.548Z,33.35
2018-06-22T09:30:00.396Z,33.38
2018-06-22T09:32:30.272Z,33.38
2018-06-22T09:35:00.104Z,33.24
2018-06-22T09:37:30.108Z,33.34
2018-06-22T09:40:00.109Z,33.65
2018-06-22T09:42:30.098Z,33.76
2018-06-22T09:45:00.064Z,33.92
2018-06-22T09:47:29.899Z,34.01
2018-06-22T09:49:59.818Z,34.05
2018-06-22T09:52:29.700Z,34.06
2018-06-22T09:54:59.617Z,33.91
2018-06-22T09:57:29.504Z,34.00
2018-06-22T09:59:59.483Z,34.00
2018-06-22T10:02:29.434Z,34.11
2018-06-22T10:04:59.289Z,34.23
2018-06-22T10:07:29.130Z,34.46
2018-06-22T10:09:58.983Z,34.59
2018-06-22T10:12:28.829Z,34.57
2018-06-22T10:14:58.721Z,34.57
2018-06-22T10:17:28.636Z,34.57
2018-06-22T10:19:58.537Z,34.69
2018-06-22T10:22:28.427Z,34.82
2018-06-22T10:24:58.287Z,34.73
2018-06-22T10:27:28.247Z,34.85
2018-06-22T10:29:58.099Z,34.67
2018-06-22T10:32:27.952Z,34.89
2018-06-22T10:34:57.808Z,34.86
2018-06-22T10:37:27.656Z,34.76
2018-06-22T10:39:57.626Z,34.75
2018-06-22T10:42:27.990Z,34.72
2018-06-22T10:44:58.008Z,34.81
2018-06-22T10:47:27.924Z,34.79
2018-06-22T10:49:57.815Z,34.79
2018-06-22T10:52:27.750Z,34.69
2018-06-22T10:54:57.789Z,34.67
2018-06-22T10:57:27.844Z,34.69
2018-06-22T10:59:58.172Z,34.79
2018-06-22T11:02:28.041Z,34.89
2018-06-22T11:04:57.996Z,34.91
2018-06-22T11:07:27.961Z,34.95
2018-06-22T11:09:57.840Z,35.04
2018-06-22T11:12:27.785Z,34.93
2018-06-22T11:14:58.107Z,34.95
2018-06-22T11:17:27.957Z,34.99
2018-06-22T11:19:57.828Z,34.96
2018-06-22T11:22:27.735Z,35.04
2018-06-22T11:24:57.678Z,35.09
2018-06-22T11:27:27.747Z,34.87
2018-06-22T11:29:57.616Z,35.07
2018-06-22T11:32:27.566Z,35.24
2018-06-22T11:34:57.526Z,35.16
2018-06-22T11:37:27.436Z,34.95
2018-06-22T11:39:57.332Z,34.60
2018-06-22T11:42:27.298Z,35.25
2018-06-22T11:44:57.244Z,35.37
2018-06-22T11:47:27.083Z,35.40
2018-06-22T11:49:57.024Z,35.25
2018-06-22T11:52:27.032Z,34.82
2018-06-22T11:54:56.943Z,35.29
2018-06-22T11:57:26.756Z,35.22
2018-06-22T11:59:56.636Z,35.22
2018-06-22T12:02:26.567Z,34.90
2018-06-22T12:04:56.564Z,35.19
2018-06-22T12:07:26.493Z,35.46
2018-06-22T12:09:56.345Z,35.44
2018-06-22T12:12:26.205Z,35.68
2018-06-22T12:14:56.037Z,35.76
2018-06-22T12:17:26.044Z,35.85
2018-06-22T12:19:55.936Z,35.84
2018-06-22T12:22:25.736Z,36.01
2018-06-22T12:24:55.693Z,35.89
2018-06-22T12:27:25.556Z,35.90
2018-06-22T12:29:55.553Z,35.86
2018-06-22T12:32:25.408Z,36.07
2018-06-22T12:34:55.252Z,36.14
2018-06-22T12:37:25.096Z,36.18
2018-06-22T12:39:54.936Z,36.10
2018-06-22T12:42:24.777Z,36.02
2018-06-22T12:44:54.744Z,35.98
2018-06-22T12:47:24.586Z,35.93
2018-06-22T12:49:54.437Z,35.80
2018-06-22T12:52:24.392Z,35.65
2018-06-22T12:54:54.252Z,35.23
2018-06-22T12:57:24.150Z,35.18
2018-06-22T12:59:54.161Z,35.22
2018-06-22T13:02:23.973Z,35.05
2018-06-22T13:04:53.828Z,34.74
2018-06-22T13:07:23.664Z,34.41
2018-06-22T13:09:53.635Z,34.03
2018-06-22T13:12:23.605Z,33.81
2018-06-22T13:14:53.568Z,33.59
2018-06-22T13:17:23.563Z,33.54
2018-06-22T13:19:53.575Z,33.45
2018-06-22T13:22:23.686Z,33.36
2018-06-22T13:24:53.572Z,33.40
2018-06-22T13:27:23.524Z,33.34
2018-06-22T13:29:53.465Z,33.28
2018-06-22T13:32:23.417Z,33.24
2018-06-22T13:34:53.429Z,33.11
2018-06-22T13:37:23.440Z,33.09
2018-06-22T13:39:53.595Z,33.24
2018-06-22T13:42:23.556Z,33.33
2018-06-22T13:44:53.448Z,33.34
2018-06-22T13:47:23.512Z,33.33
2018-06-22T13:49:53.344Z,33.33
2018-06-22T13:52:23.443Z,33.15
2018-06-22T13:54:53.340Z,33.20
2018-06-22T13:57:23.223Z,33.22
2018-06-22T14:02:17.037Z,32.80
2018-06-22T14:04:51.999Z,32.90
2018-06-22T14:07:22.020Z,32.76
2018-06-22T14:09:51.966Z,32.72
2018-06-22T14:12:21.905Z,32.60
2018-06-22T14:14:51.793Z,32.52
2018-06-22T14:17:22.063Z,32.40
2018-06-22T14:19:52.070Z,32.47
2018-06-22T14:22:22.072Z,32.57
2018-06-22T14:24:51.901Z,32.55
2018-06-22T14:27:21.757Z,32.40
2018-06-22T14:29:51.784Z,32.49
2018-06-22T14:32:21.710Z,32.50
2018-06-22T14:34:51.675Z,32.44
2018-06-22T14:37:21.555Z,32.25
2018-06-22T14:39:51.448Z,32.07
2018-06-22T14:42:21.318Z,32.04
2018-06-22T14:44:51.368Z,32.00
2018-06-22T14:47:21.350Z,31.83
2018-06-22T14:49:51.208Z,31.83
2018-06-22T14:52:21.062Z,31.95
2018-06-22T14:54:55.948Z,31.94
2018-06-22T14:57:30.831Z,31.71
2018-06-22T15:00:05.639Z,31.30
2018-06-22T15:02:40.637Z,30.94
2018-06-22T15:05:15.420Z,30.50
2018-06-22T15:07:50.428Z,30.23
2018-06-22T15:10:21.294Z,30.04
2018-06-22T15:12:51.240Z,30.00
2018-06-22T15:15:21.116Z,29.90
2018-06-22T15:17:51.820Z,29.92
2018-06-22T15:20:22.356Z,29.79
2018-06-22T15:22:52.487Z,29.79
2018-06-22T15:25:22.324Z,29.91
2018-06-22T15:27:52.212Z,29.94
2018-06-22T15:30:22.101Z,29.92
2018-06-22T15:32:52.000Z,30.14
2018-06-22T15:35:26.834Z,30.06
2018-06-22T15:38:01.872Z,30.34
2018-06-22T15:40:36.804Z,30.33
2018-06-22T15:45:14.857Z,30.40
2018-06-22T15:47:49.721Z,30.31
2018-06-22T15:50:24.574Z,30.11
2018-06-22T15:52:59.484Z,30.03
2018-06-22T15:55:31.808Z,29.83
2018-06-22T15:58:01.644Z,29.78
2018-06-22T16:00:31.536Z,29.69
2018-06-22T16:03:06.407Z,29.62
2018-06-22T16:05:36.233Z,29.43
2018-06-22T16:08:06.121Z,29.52
2018-06-22T16:10:36.052Z,29.50
2018-06-22T16:13:11.956Z,29.36
2018-06-22T16:15:46.956Z,29.34
2018-06-22T16:18:21.861Z,29.12
2018-06-22T16:20:56.792Z,29.06
2018-06-22T16:23:31.793Z,28.91
2018-06-22T16:26:06.728Z,29.03
2018-06-22T16:28:36.637Z,28.97
2018-06-22T16:31:06.480Z,28.97
2018-06-22T16:33:36.312Z,28.93
2018-06-22T16:36:06.163Z,28.93
2018-06-22T16:38:36.076Z,28.74
2018-06-22T16:41:05.948Z,28.70
2018-06-22T16:43:35.744Z,28.81
2018-06-22T16:46:05.693Z,28.66
2018-06-22T16:48:35.540Z,28.73
2018-06-22T16:51:05.464Z,28.70
2018-06-22T16:53:35.301Z,28.59
2018-06-22T16:56:05.256Z,28.57
2018-06-22T16:58:37.912Z,28.49
2018-06-22T17:01:09.794Z,28.41
2018-06-22T17:03:39.693Z,28.39
2018-06-22T17:06:09.534Z,28.33
2018-06-22T17:08:44.309Z,28.16
2018-06-22T17:11:19.292Z,28.05
2018-06-22T17:13:54.104Z,28.18
2018-06-22T17:16:28.921Z,28.09
2018-06-22T17:18:59.749Z,28.07
2018-06-22T17:21:29.564Z,28.09
2018-06-22T17:23:59.447Z,28.15
2018-06-22T17:26:29.309Z,28.11
2018-06-22T17:28:59.127Z,28.19
2018-06-22T17:31:28.981Z,28.19
2018-06-22T17:33:58.780Z,28.09
2018-06-22T17:36:28.624Z,28.10
2018-06-22T17:38:58.468Z,28.10
2018-06-22T17:41:28.348Z,28.16
2018-06-22T17:43:58.213Z,28.17
2018-06-22T17:46:28.027Z,28.11
2018-06-22T17:48:57.898Z,28.08
2018-06-22T17:51:27.721Z,28.05
2018-06-22T17:53:57.556Z,27.95
2018-06-22T17:56:31.197Z,27.94
2018-06-22T17:59:06.124Z,27.85
2018-06-22T18:01:40.946Z,27.69
2018-06-22T18:04:15.856Z,27.47
2018-06-22T18:06:50.871Z,27.44
2018-06-22T18:09:25.754Z,27.37
2018-06-22T18:12:00.810Z,27.17
2018-06-22T18:14:30.772Z,27.04
2018-06-22T18:17:00.730Z,27.01
2018-06-22T18:19:30.573Z,26.89
2018-06-22T18:22:00.464Z,26.93
2018-06-22T18:24:30.300Z,26.82
2018-06-22T18:27:00.165Z,26.75
2018-06-22T18:29:30.041Z,26.69
2018-06-22T18:31:59.853Z,26.59
2018-06-22T18:34:29.644Z,26.57
2018-06-22T18:36:59.508Z,26.49
2018-06-22T18:39:29.315Z,26.48
2018-06-22T18:41:59.156Z,26.42
2018-06-22T18:44:28.992Z,26.40
2018-06-22T18:46:58.840Z,26.39
2018-06-22T18:49:28.660Z,26.38
2018-06-22T18:52:03.644Z,26.30
2018-06-22T18:54:38.425Z,26.31
2018-06-22T18:57:13.435Z,26.24
2018-06-22T18:59:47.336Z,26.20
2018-06-22T19:02:22.383Z,26.11
2018-06-22T19:04:52.356Z,26.11
2018-06-22T19:07:22.172Z,26.09
2018-06-22T19:09:52.013Z,26.12
2018-06-22T19:12:21.830Z,26.06
2018-06-22T19:14:51.661Z,26.06
2018-06-22T19:17:21.533Z,26.02
2018-06-22T19:19:51.437Z,26.01
2018-06-22T19:22:21.372Z,25.97
2018-06-22T19:24:51.365Z,25.91
2018-06-22T19:27:21.261Z,25.92
2018-06-22T19:29:51.199Z,25.91
2018-06-22T19:32:21.032Z,25.99
2018-06-22T19:35:21.192Z,25.99
2018-06-22T19:37:51.041Z,26.02
2018-06-22T19:40:20.868Z,25.98
2018-06-22T19:42:50.781Z,25.99
2018-06-22T19:45:25.832Z,25.99
2018-06-22T19:48:00.739Z,25.89
2018-06-22T19:50:35.707Z,25.91
2018-06-22T19:53:10.710Z,25.81
2018-06-22T19:55:40.581Z,25.87
2018-06-22T19:58:10.462Z,25.75
2018-06-22T20:00:40.297Z,25.78
2018-06-22T20:03:10.135Z,25.17
2018-06-22T20:05:39.986Z,25.76
2018-06-22T20:08:09.852Z,25.82
2018-06-22T20:10:39.728Z,25.83
2018-06-22T20:13:09.572Z,25.77
2018-06-22T20:15:39.480Z,25.73
2018-06-22T20:18:09.344Z,25.66
2018-06-22T20:20:39.184Z,25.61
2018-06-22T20:23:09.236Z,25.64
2018-06-22T20:25:45.107Z,25.65
2018-06-22T20:28:15.776Z,25.63
2018-06-22T20:30:46.983Z,25.56
2018-06-22T20:33:16.999Z,25.57
2018-06-22T20:35:51.889Z,25.53
2018-06-22T20:38:26.713Z,25.45
2018-06-22T20:41:01.757Z,25.45
2018-06-22T20:43:36.682Z,25.35
2018-06-22T20:46:06.579Z,25.26
2018-06-22T20:48:41.388Z,25.27
2018-06-22T20:51:11.228Z,25.21
2018-06-22T20:53:41.093Z,25.12
2018-06-22T20:56:10.996Z,25.17
2018-06-22T20:58:40.860Z,25.05
2018-06-22T21:01:10.713Z,25.04
2018-06-22T21:03:40.570Z,25.08
2018-06-22T21:06:10.379Z,25.02
2018-06-22T21:08:40.256Z,24.97
2018-06-22T21:11:10.073Z,25.01
2018-06-22T21:13:39.904Z,24.98
2018-06-22T21:16:09.748Z,24.94
2018-06-22T21:18:39.608Z,24.85
2018-06-22T21:21:14.444Z,24.85
2018-06-22T21:23:44.281Z,24.84
2018-06-22T21:26:14.153Z,24.84
2018-06-22T21:28:49.080Z,24.82
2018-06-22T21:31:24.003Z,24.71
2018-06-22T21:36:00.908Z,24.73
2018-06-22T21:38:35.856Z,24.70
2018-06-22T21:41:05.698Z,24.65
2018-06-22T21:43:35.564Z,24.72
2018-06-22T21:46:05.637Z,24.75
2018-06-22T21:48:35.533Z,24.68
2018-06-22T21:51:05.396Z,24.67
2018-06-22T21:53:35.373Z,24.66
2018-06-22T21:56:05.420Z,24.62
2018-06-22T21:58:35.304Z,24.61
2018-06-22T22:01:05.321Z,24.54
2018-06-22T22:03:35.180Z,24.46
2018-06-22T22:06:05.106Z,24.41
2018-06-22T22:08:34.917Z,24.39
2018-06-22T22:11:09.321Z,24.40
2018-06-22T22:13:40.144Z,24.41
2018-06-22T22:16:10.508Z,24.39
2018-06-22T22:18:40.380Z,24.40
2018-06-22T22:21:10.280Z,24.35
2018-06-22T22:23:40.104Z,24.37
2018-06-22T22:26:10.053Z,24.29
2018-06-22T22:28:39.908Z,24.30
2018-06-22T22:31:09.716Z,24.21
2018-06-22T22:33:39.550Z,24.28
2018-06-22T22:36:09.432Z,24.34
2018-06-22T22:38:39.279Z,24.25
2018-06-22T22:41:09.120Z,24.16
2018-06-22T22:43:38.964Z,24.16
2018-06-22T22:46:08.797Z,24.19
2018-06-22T22:48:38.632Z,24.17
2018-06-22T22:51:08.580Z,24.17
2018-06-22T22:53:38.369Z,24.20
2018-06-22T22:56:08.237Z,24.22
2018-06-22T22:58:38.104Z,24.28
2018-06-22T23:01:07.964Z,24.26
2018-06-22T23:03:37.939Z,24.27
2018-06-22T23:06:07.890Z,24.24
2018-06-22T23:08:37.770Z,24.20
2018-06-22T23:11:07.608Z,24.11
2018-06-22T23:13:37.460Z,23.99
2018-06-22T23:16:07.396Z,24.07
2018-06-22T23:18:37.256Z,24.08
2018-06-22T23:21:07.240Z,24.05
2018-06-22T23:23:39.576Z,23.93
2018-06-22T23:26:09.536Z,23.95
2018-06-22T23:28:39.357Z,23.89
2018-06-22T23:31:09.181Z,23.85
2018-06-22T23:33:39.020Z,23.84
2018-06-22T23:36:08.916Z,23.77
2018-06-22T23:38:38.745Z,23.75
2018-06-22T23:41:08.569Z,23.76
2018-06-22T23:43:38.472Z,23.66
2018-06-22T23:46:08.442Z,23.66
2018-06-22T23:48:38.287Z,23.63
2018-06-22T23:51:08.141Z,23.59
2018-06-22T23:53:37.932Z,23.53
2018-06-22T23:56:07.797Z,23.50
2018-06-22T23:58:37.621Z,23.36
